createdAt,value
2016-10-11T00:00:45.797Z,59.48
2016-10-11T00:01:45.815Z,59.48
2016-10-11T00:02:45.835Z,59.28
2016-10-11T00:03:45.854Z,59.28
2016-10-11T00:04:45.871Z,59.48
2016-10-11T00:05:45.572Z,59.48
2016-10-11T00:06:45.909Z,59.38
2016-10-11T00:07:45.927Z,59.57
2016-10-11T00:08:45.630Z,59.48
2016-10-11T00:09:45.962Z,59.38
2016-10-11T00:10:45.982Z,59.38
2016-10-11T00:11:46.002Z,59.19
2016-10-11T00:12:45.700Z,58.72
2016-10-11T00:13:45.719Z,58.62
2016-10-11T00:14:45.739Z,58.81
2016-10-11T00:15:46.074Z,59.19
2016-10-11T00:16:45.776Z,59.57
2016-10-11T00:17:45.793Z,59.28
2016-10-11T00:18:46.129Z,59.38
2016-10-11T00:19:46.149Z,59.19
2016-10-11T00:20:45.850Z,59.09
2016-10-11T00:21:46.185Z,59
2016-10-11T00:22:45.888Z,58.91
2016-10-11T00:23:46.221Z,58.91
2016-10-11T00:24:45.924Z,58.33
2016-10-11T00:25:45.942Z,58.62
2016-10-11T00:26:45.961Z,58.81
2016-10-11T00:27:45.978Z,59.28
2016-10-11T00:28:46.315Z,58.91
2016-10-11T00:29:46.332Z,59.09
2016-10-11T00:30:46.352Z,59
2016-10-11T00:31:46.368Z,58.52
2016-10-11T00:32:46.387Z,58.81
2016-10-11T00:33:46.411Z,58.62
2016-10-11T00:34:46.422Z,59.09
2016-10-11T00:35:46.448Z,59
2016-10-11T00:36:46.144Z,59.48
2016-10-11T00:37:46.477Z,59.28
2016-10-11T00:38:46.495Z,59.48
2016-10-11T00:39:46.513Z,59.57
2016-10-11T00:40:46.219Z,59.28
2016-10-11T00:41:46.235Z,59.38
2016-10-11T00:42:46.255Z,59.48
2016-10-11T00:43:46.272Z,59.19
2016-10-11T00:44:46.607Z,59.38
2016-10-11T00:45:46.310Z,59.57
2016-10-11T00:46:46.650Z,59.57
2016-10-11T00:47:46.345Z,59.38
2016-10-11T00:48:46.685Z,59.28
2016-10-11T00:49:46.700Z,59.67
2016-10-11T00:50:46.402Z,59.09
2016-10-11T00:51:46.419Z,59.38
2016-10-11T00:52:46.440Z,59.67
2016-10-11T00:53:46.770Z,60.24
2016-10-11T00:54:46.795Z,59.67
2016-10-11T00:55:46.812Z,59.48
2016-10-11T00:56:46.834Z,59.48
2016-10-11T00:57:46.529Z,59.95
2016-10-11T00:58:46.865Z,59.38
2016-10-11T00:59:46.566Z,59.57
2016-10-11T01:00:46.925Z,59
2016-10-11T01:01:46.606Z,59.57
2016-10-11T01:02:46.622Z,59.48
2016-10-11T01:03:46.956Z,59.19
2016-10-11T01:04:46.974Z,59
2016-10-11T01:05:46.991Z,59
2016-10-11T01:06:46.695Z,59.48
2016-10-11T01:07:47.030Z,59.48
2016-10-11T01:08:47.044Z,59.67
2016-10-11T01:09:47.065Z,59.28
2016-10-11T01:10:46.767Z,59.38
2016-10-11T01:11:47.108Z,59.28
2016-10-11T01:12:47.120Z,59.38
2016-10-11T01:13:46.823Z,59
2016-10-11T01:14:46.841Z,59.09
2016-10-11T01:15:46.861Z,58.91
2016-10-11T01:16:47.193Z,58.62
2016-10-11T01:17:46.899Z,58.91
2016-10-11T01:18:46.912Z,59.48
2016-10-11T01:19:47.245Z,59.48
2016-10-11T01:20:47.267Z,59.67
2016-10-11T01:21:46.970Z,59.28
2016-10-11T01:22:47.303Z,59.38
2016-10-11T01:23:47.007Z,59.48
2016-10-11T01:24:47.336Z,59.57
2016-10-11T01:25:47.368Z,59.48
2016-10-11T01:26:47.061Z,59.28
2016-10-11T01:27:47.078Z,59.28
2016-10-11T01:28:47.413Z,59.19
2016-10-11T01:29:47.113Z,59.28
2016-10-11T01:30:47.143Z,59.95
2016-10-11T01:31:47.468Z,59.95
2016-10-11T01:32:47.485Z,60.24
2016-10-11T01:33:47.189Z,59.48
2016-10-11T01:34:47.522Z,59.67
2016-10-11T01:35:47.225Z,59.57
2016-10-11T01:36:47.558Z,59.48
2016-10-11T01:37:47.262Z,60.24
2016-10-11T01:38:47.596Z,59.86
2016-10-11T01:39:47.297Z,60.14
2016-10-11T01:40:47.315Z,59.95
2016-10-11T01:41:47.335Z,60.14
2016-10-11T01:42:47.670Z,60.05
2016-10-11T01:43:47.370Z,60.33
2016-10-11T01:44:47.702Z,59.76
2016-10-11T01:45:47.732Z,60.24
2016-10-11T01:46:47.428Z,59.67
2016-10-11T01:47:47.447Z,59.86
2016-10-11T01:48:47.463Z,59.38
2016-10-11T01:49:47.479Z,59.95
2016-10-11T01:50:47.815Z,60.43
2016-10-11T01:51:47.830Z,59.67
2016-10-11T01:52:47.543Z,59.48
2016-10-11T01:53:47.553Z,59.67
2016-10-11T01:54:47.570Z,59.57
2016-10-11T01:55:47.910Z,59.48
2016-10-11T01:56:47.925Z,59.19
2016-10-11T01:57:47.941Z,59.38
2016-10-11T01:58:47.962Z,59.38
2016-10-11T01:59:47.663Z,59.48
2016-10-11T02:00:48.016Z,59.38
2016-10-11T02:01:48.015Z,59.48
2016-10-11T02:02:48.034Z,59.48
2016-10-11T02:03:47.736Z,59.57
2016-10-11T02:04:47.755Z,59.19
2016-10-11T02:05:47.772Z,59.48
2016-10-11T02:06:48.107Z,59.57
2016-10-11T02:07:47.821Z,59.57
2016-10-11T02:08:48.142Z,59.28
2016-10-11T02:09:47.844Z,59.48
2016-10-11T02:10:47.862Z,59.28
2016-10-11T02:11:48.201Z,59.09
2016-10-11T02:12:48.215Z,59.28
2016-10-11T02:13:48.234Z,59.19
2016-10-11T02:14:48.253Z,59.09
2016-10-11T02:15:47.955Z,59.57
2016-10-11T02:16:47.988Z,59.28
2016-10-11T02:17:48.308Z,59
2016-10-11T02:18:48.010Z,58.91
2016-10-11T02:19:48.345Z,58.62
2016-10-11T02:20:48.362Z,59
2016-10-11T02:21:48.378Z,59.09
2016-10-11T02:22:48.419Z,59
2016-10-11T02:23:48.112Z,59.09
2016-10-11T02:24:48.118Z,58.91
2016-10-11T02:25:48.455Z,59
2016-10-11T02:26:48.469Z,59.19
2016-10-11T02:27:48.174Z,59.38
2016-10-11T02:28:48.193Z,59.48
2016-10-11T02:29:48.210Z,59.48
2016-10-11T02:30:48.546Z,60.33
2016-10-11T02:31:48.271Z,59.86
2016-10-11T02:32:48.593Z,59.19
2016-10-11T02:33:48.284Z,59.48
2016-10-11T02:34:48.302Z,59.95
2016-10-11T02:35:48.320Z,59.38
2016-10-11T02:36:48.654Z,59.28
2016-10-11T02:37:48.671Z,59.48
2016-10-11T02:38:48.696Z,59.48
2016-10-11T02:39:48.707Z,59.57
2016-10-11T02:40:48.727Z,59.57
2016-10-11T02:41:48.433Z,59.67
2016-10-11T02:42:48.447Z,59.38
2016-10-11T02:43:48.466Z,60.14
2016-10-11T02:44:48.799Z,59.86
2016-10-11T02:45:48.504Z,59.76
2016-10-11T02:46:48.520Z,59.38
2016-10-11T02:47:48.854Z,59.28
2016-10-11T02:48:48.557Z,59.48
2016-10-11T02:49:48.573Z,59.48
2016-10-11T02:50:48.909Z,59.86
2016-10-11T02:51:48.613Z,60.14
2016-10-11T02:52:48.628Z,60.14
2016-10-11T02:53:48.649Z,59.19
2016-10-11T02:54:48.981Z,59.57
2016-10-11T02:55:48.686Z,59.38
2016-10-11T02:56:48.701Z,59.67
2016-10-11T02:57:49.035Z,59.09
2016-10-11T02:58:49.054Z,59.09
2016-10-11T02:59:49.073Z,59.19
2016-10-11T03:00:48.794Z,59.28
2016-10-11T03:01:49.110Z,59.28
2016-10-11T03:02:49.128Z,59.38
2016-10-11T03:03:48.831Z,59.48
2016-10-11T03:04:49.163Z,59.38
2016-10-11T03:05:48.866Z,59.86
2016-10-11T03:06:49.201Z,59.48
2016-10-11T03:07:48.902Z,58.72
2016-10-11T03:08:49.236Z,59.09
2016-10-11T03:09:48.938Z,59.48
2016-10-11T03:10:48.957Z,59.48
2016-10-11T03:11:48.975Z,59.67
2016-10-11T03:12:48.993Z,59.28
2016-10-11T03:13:49.327Z,59.67
2016-10-11T03:14:49.030Z,59.86
2016-10-11T03:15:49.363Z,60.05
2016-10-11T03:16:49.063Z,59.48
2016-10-11T03:17:49.400Z,60.05
2016-10-11T03:18:49.101Z,59.86
2016-10-11T03:19:49.120Z,59.74
2016-10-11T03:20:49.152Z,60.3
2016-10-11T03:21:49.470Z,60.59
2016-10-11T03:22:49.175Z,60.4
2016-10-11T03:23:49.507Z,60.69
2016-10-11T03:24:49.209Z,60.4
2016-10-11T03:25:49.228Z,60.59
2016-10-11T03:26:49.559Z,60.88
2016-10-11T03:27:49.264Z,61.25
2016-10-11T03:28:49.281Z,60.59
2016-10-11T03:29:49.619Z,61.25
2016-10-11T03:30:49.322Z,61.07
2016-10-11T03:31:49.653Z,61.07
2016-10-11T03:32:49.352Z,61.54
2016-10-11T03:33:49.697Z,61.64
2016-10-11T03:34:49.388Z,61.35
2016-10-11T03:35:49.724Z,61.16
2016-10-11T03:36:49.427Z,60.78
2016-10-11T03:37:49.761Z,60.69
2016-10-11T03:38:49.779Z,61.35
2016-10-11T03:39:49.795Z,60.69
2016-10-11T03:40:49.819Z,61.07
2016-10-11T03:41:49.828Z,60.78
2016-10-11T03:42:49.534Z,60.69
2016-10-11T03:43:49.552Z,60.59
2016-10-11T03:44:49.570Z,60.88
2016-10-11T03:45:49.597Z,60.49
2016-10-11T03:46:49.925Z,60.69
2016-10-11T03:47:49.941Z,60.69
2016-10-11T03:48:49.640Z,60.21
2016-10-11T03:49:49.978Z,60.21
2016-10-11T03:50:49.677Z,60.69
2016-10-11T03:51:50.012Z,61.54
2016-10-11T03:52:49.724Z,61.54
2016-10-11T03:53:49.735Z,61.07
2016-10-11T03:54:50.069Z,61.07
2016-10-11T03:55:49.765Z,61.35
2016-10-11T03:56:49.786Z,61.54
2016-10-11T03:57:50.117Z,61.73
2016-10-11T03:58:49.819Z,61.16
2016-10-11T03:59:50.167Z,61.54
2016-10-11T04:00:49.859Z,61.73
2016-10-11T04:01:49.872Z,61.35
2016-10-11T04:02:49.892Z,61.54
2016-10-11T04:03:49.918Z,61.83
2016-10-11T04:04:50.245Z,61.16
2016-10-11T04:05:50.262Z,61.64
2016-10-11T04:06:50.282Z,61.07
2016-10-11T04:07:49.984Z,61.73
2016-10-11T04:08:50.016Z,61.54
2016-10-11T04:09:50.019Z,61.45
2016-10-11T04:10:50.353Z,61.16
2016-10-11T04:11:50.057Z,61.16
2016-10-11T04:12:50.390Z,61.73
2016-10-11T04:13:50.089Z,61.07
2016-10-11T04:14:50.129Z,61.16
2016-10-11T04:15:50.442Z,60.69
2016-10-11T04:16:50.461Z,61.16
2016-10-11T04:17:50.477Z,61.25
2016-10-11T04:18:50.491Z,60.49
2016-10-11T04:19:50.198Z,60.69
2016-10-11T04:20:50.530Z,61.25
2016-10-11T04:21:50.234Z,60.97
2016-10-11T04:22:50.566Z,60.78
2016-10-11T04:23:50.270Z,60.69
2016-10-11T04:24:50.601Z,60.88
2016-10-11T04:25:50.621Z,60.88
2016-10-11T04:26:50.322Z,60.78
2016-10-11T04:27:50.338Z,60.78
2016-10-11T04:28:50.358Z,60.3
2016-10-11T04:29:50.692Z,60.49
2016-10-11T04:30:50.725Z,60.3
2016-10-11T04:31:50.727Z,60.69
2016-10-11T04:32:50.747Z,61.35
2016-10-11T04:33:50.450Z,61.35
2016-10-11T04:34:50.465Z,60.59
2016-10-11T04:35:50.484Z,61.64
2016-10-11T04:36:50.501Z,61.73
2016-10-11T04:37:50.839Z,61.07
2016-10-11T04:38:50.548Z,61.73
2016-10-11T04:39:50.555Z,61.16
2016-10-11T04:40:50.571Z,60.97
2016-10-11T04:41:50.904Z,60.88
2016-10-11T04:42:50.608Z,61.45
2016-10-11T04:43:50.623Z,61.35
2016-10-11T04:44:50.644Z,61.1
2016-10-11T04:45:50.661Z,60.78
2016-10-11T04:46:50.679Z,60.69
2016-10-11T04:47:51.019Z,61.07
2016-10-11T04:48:51.035Z,61.16
2016-10-11T04:49:51.052Z,61.16
2016-10-11T04:50:51.068Z,61.45
2016-10-11T04:51:51.085Z,61.76
2016-10-11T04:52:50.793Z,61.29
2016-10-11T04:53:50.806Z,61.45
2016-10-11T04:54:51.145Z,60.88
2016-10-11T04:55:51.160Z,61.45
2016-10-11T04:56:51.176Z,60.91
2016-10-11T04:57:50.877Z,60.24
2016-10-11T04:58:51.217Z,59.64
2016-10-11T04:59:51.235Z,60.21
2016-10-11T05:00:50.940Z,60.4
2016-10-11T05:01:50.950Z,60.3
2016-10-11T05:02:50.966Z,60.11
2016-10-11T05:03:51.301Z,60.78
2016-10-11T05:04:51.006Z,60.69
2016-10-11T05:05:51.026Z,60.78
2016-10-11T05:06:51.357Z,61.48
2016-10-11T05:07:51.382Z,61.38
2016-10-11T05:08:51.391Z,61.1
2016-10-11T05:09:51.096Z,61.1
2016-10-11T05:10:51.115Z,60.69
2016-10-11T05:11:51.134Z,60.88
2016-10-11T05:12:51.147Z,60.78
2016-10-11T05:13:51.481Z,61.07
2016-10-11T05:14:51.191Z,62.12
2016-10-11T05:15:51.202Z,61.25
2016-10-11T05:16:51.221Z,60.69
2016-10-11T05:17:51.564Z,60.78
2016-10-11T05:18:51.570Z,61.35
2016-10-11T05:19:51.591Z,61.45
2016-10-11T05:20:51.294Z,61.54
2016-10-11T05:21:51.315Z,61.45
2016-10-11T05:22:51.336Z,61.16
2016-10-11T05:23:51.348Z,61.45
2016-10-11T05:24:51.373Z,61.45
2016-10-11T05:25:51.697Z,61.54
2016-10-11T05:26:51.403Z,60.97
2016-10-11T05:27:51.733Z,61.25
2016-10-11T05:28:51.752Z,61.07
2016-10-11T05:29:51.473Z,60.59
2016-10-11T05:30:51.787Z,60.88
2016-10-11T05:31:51.806Z,61.73
2016-10-11T05:32:51.844Z,61.07
2016-10-11T05:33:51.528Z,60.3
2016-10-11T05:34:51.856Z,60.49
2016-10-11T05:35:51.880Z,60.49
2016-10-11T05:36:51.915Z,60.88
2016-10-11T05:37:51.913Z,60.97
2016-10-11T05:38:51.615Z,60.69
2016-10-11T05:39:51.635Z,60.49
2016-10-11T05:40:51.968Z,60.3
2016-10-11T05:41:51.670Z,60.3
2016-10-11T05:42:51.686Z,60.59
2016-10-11T05:43:52.021Z,60.3
2016-10-11T05:44:51.746Z,60.49
2016-10-11T05:45:52.058Z,60.3
2016-10-11T05:46:52.084Z,60.49
2016-10-11T05:47:52.190Z,60.52
2016-10-11T05:48:51.796Z,60.62
2016-10-11T05:49:51.816Z,60.72
2016-10-11T05:50:51.832Z,60.33
2016-10-11T05:51:52.170Z,60.43
2016-10-11T05:52:51.885Z,60.52
2016-10-11T05:53:51.887Z,60.33
2016-10-11T05:54:52.219Z,60.43
2016-10-11T05:55:52.238Z,60.43
2016-10-11T05:56:51.939Z,60.43
2016-10-11T05:57:52.277Z,60.62
2016-10-11T05:58:51.997Z,60.14
2016-10-11T05:59:52.310Z,60.05
2016-10-11T06:00:52.014Z,59.76
2016-10-11T06:01:52.030Z,59.57
2016-10-11T06:02:52.049Z,59.57
2016-10-11T06:03:52.067Z,59.67
2016-10-11T06:04:52.403Z,59.95
2016-10-11T06:05:52.102Z,59.57
2016-10-11T06:06:52.119Z,59.28
2016-10-11T06:07:52.139Z,59.28
2016-10-11T06:08:52.155Z,59.28
2016-10-11T06:09:52.491Z,59.28
2016-10-11T06:10:52.528Z,59.57
2016-10-11T06:11:52.209Z,59.57
2016-10-11T06:12:52.227Z,59.09
2016-10-11T06:13:52.248Z,59.86
2016-10-11T06:14:52.266Z,59.57
2016-10-11T06:15:52.282Z,59.28
2016-10-11T06:16:52.300Z,58.91
2016-10-11T06:17:52.321Z,58.91
2016-10-11T06:18:52.337Z,58.62
2016-10-11T06:19:52.671Z,58.91
2016-10-11T06:20:52.372Z,58.91
2016-10-11T06:21:52.707Z,59.48
2016-10-11T06:22:52.724Z,59.57
2016-10-11T06:23:52.427Z,59.57
2016-10-11T06:24:52.761Z,59.28
2016-10-11T06:25:52.466Z,59.48
2016-10-11T06:26:52.482Z,59.76
2016-10-11T06:27:52.816Z,59.38
2016-10-11T06:28:52.522Z,59.38
2016-10-11T06:29:52.538Z,59.28
2016-10-11T06:30:52.871Z,59.48
2016-10-11T06:31:52.889Z,59.09
2016-10-11T06:32:52.587Z,58.81
2016-10-11T06:33:52.609Z,58.91
2016-10-11T06:34:52.628Z,59.09
2016-10-11T06:35:52.961Z,59.57
2016-10-11T06:36:52.664Z,59
2016-10-11T06:37:52.999Z,59.28
2016-10-11T06:38:52.701Z,59.48
2016-10-11T06:39:53.037Z,59.48
2016-10-11T06:40:52.735Z,59.09
2016-10-11T06:41:52.756Z,59.48
2016-10-11T06:42:53.089Z,59.19
2016-10-11T06:43:52.929Z,59
2016-10-11T06:44:53.126Z,59
2016-10-11T06:45:52.828Z,59.09
2016-10-11T06:46:53.164Z,59.09
2016-10-11T06:47:53.186Z,59.09
2016-10-11T06:48:52.880Z,58.91
2016-10-11T06:49:53.217Z,59
2016-10-11T06:50:52.918Z,58.91
2016-10-11T06:51:52.936Z,59.19
2016-10-11T06:52:52.958Z,58.14
2016-10-11T06:53:53.290Z,58.43
2016-10-11T06:54:52.989Z,58.33
2016-10-11T06:55:53.323Z,58.43
2016-10-11T06:56:53.345Z,58.72
2016-10-11T06:57:53.051Z,59
2016-10-11T06:58:53.380Z,59.03
2016-10-11T06:59:53.099Z,59.03
2016-10-11T07:00:53.417Z,58.46
2016-10-11T07:01:53.116Z,58.07
2016-10-11T07:02:53.468Z,58.36
2016-10-11T07:03:53.158Z,57.98
2016-10-11T07:04:53.172Z,57.79
2016-10-11T07:05:53.192Z,58.17
2016-10-11T07:06:53.217Z,58.36
2016-10-11T07:07:53.240Z,58.07
2016-10-11T07:08:53.249Z,59.12
2016-10-11T07:09:53.263Z,58.75
2016-10-11T07:10:53.285Z,59.22
2016-10-11T07:11:53.303Z,59.31
2016-10-11T07:12:53.637Z,58.07
2016-10-11T07:13:53.340Z,58.17
2016-10-11T07:14:53.367Z,58.07
2016-10-11T07:15:53.377Z,57.31
2016-10-11T07:16:53.393Z,58.26
2016-10-11T07:17:53.745Z,58.36
2016-10-11T07:18:53.748Z,58.26
2016-10-11T07:19:53.769Z,57.89
2016-10-11T07:20:53.469Z,57.03
2016-10-11T07:21:53.809Z,57.31
2016-10-11T07:22:53.823Z,57.7
2016-10-11T07:23:53.528Z,57.79
2016-10-11T07:24:53.544Z,57.6
2016-10-11T07:25:53.562Z,57.31
2016-10-11T07:26:53.896Z,57.12
2016-10-11T07:27:53.913Z,57.12
2016-10-11T07:28:53.619Z,57.79
2016-10-11T07:29:53.643Z,57.79
2016-10-11T07:30:53.661Z,57.6
2016-10-11T07:31:53.988Z,57.12
2016-10-11T07:32:54.026Z,56.55
2016-10-11T07:33:53.712Z,57.12
2016-10-11T07:34:54.046Z,57.12
2016-10-11T07:35:53.749Z,57.31
2016-10-11T07:36:54.107Z,57.34
2016-10-11T07:37:53.787Z,57.15
2016-10-11T07:38:53.805Z,57.24
2016-10-11T07:39:53.824Z,56.96
2016-10-11T07:40:54.160Z,57.24
2016-10-11T07:41:53.863Z,58.2
2016-10-11T07:42:54.196Z,57.53
2016-10-11T07:43:53.899Z,56.48
2016-10-11T07:44:54.233Z,55.43
2016-10-11T07:45:53.937Z,56.2
2016-10-11T07:46:53.955Z,56.48
2016-10-11T07:47:54.305Z,56.77
2016-10-11T07:48:53.997Z,55.91
2016-10-11T07:49:54.012Z,55.72
2016-10-11T07:50:54.032Z,55.91
2016-10-11T07:51:54.057Z,55.82
2016-10-11T07:52:54.385Z,55.34
2016-10-11T07:53:54.088Z,55.15
2016-10-11T07:54:54.431Z,54.48
2016-10-11T07:55:54.127Z,55.53
2016-10-11T07:56:54.146Z,55.15
2016-10-11T07:57:54.481Z,55.18
2016-10-11T07:58:54.186Z,55.36
2016-10-11T07:59:54.206Z,56.23
2016-10-11T08:00:54.233Z,57.46
2016-10-11T08:01:54.558Z,53.84
2016-10-11T08:02:54.586Z,53.93
2016-10-11T08:03:54.283Z,54.41
2016-10-11T08:04:54.617Z,53.36
2016-10-11T08:05:54.633Z,52.98
2016-10-11T08:06:54.343Z,54.13
2016-10-11T08:07:54.675Z,53.74
2016-10-11T08:08:54.692Z,53.36
2016-10-11T08:09:54.712Z,53.93
2016-10-11T08:10:54.751Z,53.74
2016-10-11T08:11:54.450Z,54.41
2016-10-11T08:12:54.455Z,53.93
2016-10-11T08:13:54.475Z,53.84
2016-10-11T08:14:54.493Z,54.32
2016-10-11T08:15:54.515Z,53.93
2016-10-11T08:16:54.534Z,53.08
2016-10-11T08:17:54.869Z,51.54
2016-10-11T08:18:54.572Z,52.22
2016-10-11T08:19:54.909Z,53.27
2016-10-11T08:20:54.610Z,52.4
2016-10-11T08:21:54.632Z,52.69
2016-10-11T08:22:54.967Z,53.14
2016-10-11T08:23:54.985Z,53.27
2016-10-11T08:24:55.004Z,53.93
2016-10-11T08:25:54.707Z,54.22
2016-10-11T08:26:54.726Z,53.74
2016-10-11T08:27:54.752Z,52.98
2016-10-11T08:28:54.765Z,54.03
2016-10-11T08:29:54.784Z,53.55
2016-10-11T08:30:54.805Z,53.93
2016-10-11T08:31:54.824Z,53.08
2016-10-11T08:32:55.167Z,53.93
2016-10-11T08:33:55.199Z,53.84
2016-10-11T08:34:54.888Z,54.41
2016-10-11T08:35:54.908Z,53.84
2016-10-11T08:36:54.929Z,54.22
2016-10-11T08:37:55.255Z,54.6
2016-10-11T08:38:54.965Z,53.86
2016-10-11T08:39:54.980Z,53.86
2016-10-11T08:40:55.313Z,55.4
2016-10-11T08:41:55.335Z,52.53
2016-10-11T08:42:55.353Z,52.62
2016-10-11T08:43:55.059Z,52.15
2016-10-11T08:44:55.392Z,51.67
2016-10-11T08:45:55.098Z,51.89
2016-10-11T08:46:55.432Z,51.76
2016-10-11T08:47:55.142Z,52.05
2016-10-11T08:48:55.163Z,53.2
2016-10-11T08:49:55.178Z,53.8
2016-10-11T08:50:55.198Z,51.7
2016-10-11T08:51:55.241Z,50.55
2016-10-11T08:52:55.247Z,50.74
2016-10-11T08:53:55.572Z,50.84
2016-10-11T08:54:55.593Z,49.33
2016-10-11T08:55:55.611Z,49.62
2016-10-11T08:56:55.633Z,50
2016-10-11T08:57:55.339Z,49.33
2016-10-11T08:58:55.357Z,49.62
2016-10-11T08:59:55.393Z,51.05
2016-10-11T09:00:55.404Z,50.76
2016-10-11T09:01:55.736Z,50.38
2016-10-11T09:02:55.441Z,51.46
2016-10-11T09:03:55.778Z,51.46
2016-10-11T09:04:55.482Z,51.93
2016-10-11T09:05:55.520Z,52.13
2016-10-11T09:06:55.523Z,52.13
2016-10-11T09:07:55.864Z,50.81
2016-10-11T09:08:55.569Z,48.71
2016-10-11T09:09:55.590Z,48.8
2016-10-11T09:10:55.607Z,49.76
2016-10-11T09:11:55.631Z,50.43
2016-10-11T09:12:55.653Z,49.86
2016-10-11T09:13:55.672Z,48.8
2016-10-11T09:14:55.693Z,48.04
2016-10-11T09:15:55.714Z,47.37
2016-10-11T09:16:56.052Z,46.89
2016-10-11T09:17:55.756Z,46.7
2016-10-11T09:18:55.776Z,48.04
2016-10-11T09:19:56.114Z,47.27
2016-10-11T09:20:55.819Z,47.56
2016-10-11T09:21:55.840Z,47.92
2016-10-11T09:22:56.177Z,49.74
2016-10-11T09:23:55.900Z,50.34
2016-10-11T09:24:56.218Z,47.18
2016-10-11T09:25:56.239Z,48.11
2016-10-11T09:26:56.261Z,47.73
2016-10-11T09:27:56.282Z,47.25
2016-10-11T09:28:56.302Z,46.58
2016-10-11T09:29:56.016Z,46.1
2016-10-11T09:30:56.347Z,47.53
2016-10-11T09:31:56.059Z,47.82
2016-10-11T09:32:56.388Z,48.21
2016-10-11T09:33:56.625Z,47.53
2016-10-11T09:34:56.430Z,47.34
2016-10-11T09:35:56.449Z,47.34
2016-10-11T09:36:56.156Z,47.25
2016-10-11T09:37:56.179Z,46.2
2016-10-11T09:38:56.198Z,46.3
2016-10-11T09:39:56.541Z,46.01
2016-10-11T09:40:56.557Z,46.39
2016-10-11T09:41:56.260Z,46.87
2016-10-11T09:42:56.281Z,47.25
2016-10-11T09:43:56.301Z,48.21
2016-10-11T09:44:56.322Z,47.34
2016-10-11T09:45:56.346Z,48.11
2016-10-11T09:46:56.679Z,48.21
2016-10-11T09:47:56.385Z,49.35
2016-10-11T09:48:56.722Z,50.41
2016-10-11T09:49:56.429Z,48.11
2016-10-11T09:50:56.449Z,48.49
2016-10-11T09:51:56.784Z,47.44
2016-10-11T09:52:56.512Z,46.58
2016-10-11T09:53:56.521Z,46.87
2016-10-11T09:54:56.848Z,47.34
2016-10-11T09:55:56.868Z,46.1
2016-10-11T09:56:56.891Z,45.91
2016-10-11T09:57:56.594Z,46.96
2016-10-11T09:58:56.671Z,48.21
2016-10-11T09:59:56.638Z,47.25
2016-10-11T10:00:56.666Z,47.53
2016-10-11T10:01:56.692Z,47.8
2016-10-11T10:02:56.699Z,48.38
2016-10-11T10:03:57.044Z,47.52
2016-10-11T10:04:56.874Z,47.99
2016-10-11T10:05:56.761Z,48.75
2016-10-11T10:06:56.782Z,48.95
2016-10-11T10:07:57.125Z,49.52
2016-10-11T10:08:56.825Z,50
2016-10-11T10:09:56.847Z,50.09
2016-10-11T10:10:56.867Z,50.95
2016-10-11T10:11:57.201Z,51.91
2016-10-11T10:12:56.906Z,51.43
2016-10-11T10:13:56.927Z,51.81
2016-10-11T10:14:57.269Z,51.91
2016-10-11T10:15:57.286Z,51.15
2016-10-11T10:16:57.308Z,50.38
2016-10-11T10:17:57.008Z,50.86
2016-10-11T10:18:57.382Z,51.91
2016-10-11T10:19:57.367Z,52.01
2016-10-11T10:20:57.073Z,51.81
2016-10-11T10:21:57.410Z,51.62
2016-10-11T10:22:57.425Z,51.34
2016-10-11T10:23:57.133Z,52.01
2016-10-11T10:24:57.178Z,52.29
2016-10-11T10:25:57.490Z,49.62
2016-10-11T10:26:57.540Z,50.38
2016-10-11T10:27:57.258Z,51.05
2016-10-11T10:28:57.236Z,51.62
2016-10-11T10:29:57.572Z,50.38
2016-10-11T10:30:57.290Z,50.38
2016-10-11T10:31:57.300Z,49.23
2016-10-11T10:32:57.637Z,49.52
2016-10-11T10:33:57.338Z,49.62
2016-10-11T10:34:57.705Z,49.33
2016-10-11T10:35:57.400Z,49.04
2016-10-11T10:36:57.400Z,49.9
2016-10-11T10:37:57.636Z,50.19
2016-10-11T10:38:57.967Z,49.9
2016-10-11T10:39:57.772Z,49.9
2016-10-11T10:40:57.796Z,50.57
2016-10-11T10:41:57.821Z,51.43
2016-10-11T10:42:57.519Z,51.53
2016-10-11T10:43:57.542Z,50.57
2016-10-11T10:44:57.561Z,48.18
2016-10-11T10:45:57.590Z,48.18
2016-10-11T10:46:57.920Z,48.28
2016-10-11T10:47:57.625Z,48.28
2016-10-11T10:48:57.642Z,48.66
2016-10-11T10:49:57.681Z,50
2016-10-11T10:50:57.686Z,48.11
2016-10-11T10:51:58.020Z,48.21
2016-10-11T10:52:57.723Z,48.68
2016-10-11T10:53:57.748Z,48.49
2016-10-11T10:54:58.083Z,48.11
2016-10-11T10:55:57.785Z,47.63
2016-10-11T10:56:58.122Z,47.53
2016-10-11T10:57:57.830Z,47.63
2016-10-11T10:58:57.853Z,47.63
2016-10-11T10:59:58.187Z,47.06
2016-10-11T11:00:57.891Z,46.77
2016-10-11T11:01:57.914Z,46.58
2016-10-11T11:02:58.250Z,46.77
2016-10-11T11:03:58.272Z,46.67
2016-10-11T11:04:58.293Z,46.87
2016-10-11T11:05:58.310Z,46.67
2016-10-11T11:06:58.017Z,46.2
2016-10-11T11:07:58.353Z,46.77
2016-10-11T11:08:58.068Z,47.25
2016-10-11T11:09:58.079Z,47.73
2016-10-11T11:10:58.417Z,48.11
2016-10-11T11:11:58.126Z,47.85
2016-10-11T11:12:58.147Z,47.92
2016-10-11T11:13:58.481Z,48.23
2016-10-11T11:14:58.516Z,47.37
2016-10-11T11:15:58.213Z,47.56
2016-10-11T11:16:58.227Z,48.13
2016-10-11T11:17:58.563Z,48.33
2016-10-11T11:18:58.586Z,47.94
2016-10-11T11:19:58.616Z,46.22
2016-10-11T11:20:58.316Z,45.45
2016-10-11T11:21:58.335Z,44.59
2016-10-11T11:22:58.673Z,43.35
2016-10-11T11:23:58.376Z,43.73
2016-10-11T11:24:58.710Z,43.54
2016-10-11T11:25:58.733Z,44.4
2016-10-11T11:26:58.756Z,46.22
2016-10-11T11:27:58.777Z,46.12
2016-10-11T11:28:58.800Z,45.45
2016-10-11T11:29:58.820Z,46.51
2016-10-11T11:30:58.849Z,47.75
2016-10-11T11:31:58.563Z,45.07
2016-10-11T11:32:58.898Z,46.89
2016-10-11T11:33:58.903Z,45.74
2016-10-11T11:34:58.925Z,44.88
2016-10-11T11:35:58.630Z,43.73
2016-10-11T11:36:58.651Z,43.83
2016-10-11T11:37:58.672Z,41.34
2016-10-11T11:38:58.695Z,42.47
2016-10-11T11:39:58.719Z,43.43
2016-10-11T11:40:58.741Z,41.8
2016-10-11T11:41:58.757Z,42.18
2016-10-11T11:42:58.775Z,42.66
2016-10-11T11:43:59.115Z,43.43
2016-10-11T11:44:58.819Z,44
2016-10-11T11:45:59.153Z,44.19
2016-10-11T11:46:58.864Z,44.09
2016-10-11T11:47:58.881Z,44.95
2016-10-11T11:48:58.905Z,45.34
2016-10-11T11:49:59.253Z,45.43
2016-10-11T11:50:58.943Z,45.15
2016-10-11T11:51:58.964Z,44.76
2016-10-11T11:52:59.302Z,46.2
2016-10-11T11:53:59.322Z,46.39
2016-10-11T11:54:59.347Z,46.2
2016-10-11T11:55:59.068Z,47.53
2016-10-11T11:56:59.072Z,49.74
2016-10-11T11:57:59.089Z,50.31
2016-10-11T11:58:59.115Z,50.02
2016-10-11T11:59:59.131Z,50.21
2016-10-11T12:00:59.151Z,50.41
2016-10-11T12:01:59.173Z,51.27
2016-10-11T12:02:59.215Z,51.46
2016-10-11T12:03:59.227Z,50.31
2016-10-11T12:04:59.550Z,49.55
2016-10-11T12:05:59.256Z,48.59
2016-10-11T12:06:59.592Z,48.68
2016-10-11T12:07:59.301Z,49.35
2016-10-11T12:08:59.331Z,48.02
2016-10-11T12:09:59.342Z,48.97
2016-10-11T12:10:59.365Z,48.68
2016-10-11T12:11:59.695Z,47.53
2016-10-11T12:12:59.722Z,47.63
2016-10-11T12:13:59.748Z,48.11
2016-10-11T12:14:59.757Z,48.39
2016-10-11T12:15:59.468Z,49.26
2016-10-11T12:16:59.485Z,49.35
2016-10-11T12:17:59.832Z,49.93
2016-10-11T12:18:59.529Z,48.68
2016-10-11T12:19:59.865Z,46.87
2016-10-11T12:20:59.888Z,46.1
2016-10-11T12:21:59.609Z,45.43
2016-10-11T12:22:59.615Z,46.08
2016-10-11T12:23:59.632Z,44.55
2016-10-11T12:24:59.988Z,44.26
2016-10-11T12:25:59.676Z,43.02
2016-10-11T12:26:59.724Z,43.5
2016-10-11T12:28:00.033Z,43.76
2016-10-11T12:28:59.735Z,44.05
2016-10-11T12:30:00.074Z,43.57
2016-10-11T12:31:00.094Z,43.66
2016-10-11T12:31:59.798Z,44.31
2016-10-11T12:32:59.836Z,44.12
2016-10-11T12:33:59.847Z,44.02
2016-10-11T12:35:00.176Z,44.77
2016-10-11T12:36:00.193Z,45.25
2016-10-11T12:37:00.213Z,46.01
2016-10-11T12:38:00.235Z,46.48
2016-10-11T12:39:00.259Z,47.25
2016-10-11T12:40:00.277Z,47.63
2016-10-11T12:40:59.992Z,47.25
2016-10-11T12:42:00.313Z,46.77
2016-10-11T12:43:00.336Z,47.16
2016-10-11T12:44:00.367Z,47.16
2016-10-11T12:45:00.378Z,47.63
2016-10-11T12:46:00.392Z,47.54
2016-10-11T12:47:00.113Z,47.52
2016-10-11T12:48:00.433Z,47.99
2016-10-11T12:49:00.144Z,49.33
2016-10-11T12:50:00.153Z,49.42
2016-10-11T12:51:00.489Z,48.28
2016-10-11T12:52:00.524Z,48.75
2016-10-11T12:53:00.210Z,49.33
2016-10-11T12:54:00.549Z,49.33
2016-10-11T12:55:00.566Z,50.18
2016-10-11T12:56:00.277Z,50.38
2016-10-11T12:57:00.289Z,50.28